Time;durP1;ratioP1;P1;durP2;ratioP2;P2;SDS_P1;SDS_P2;PMS_P1;PMS_P2;Temp;Humidity;BMP_temperature;BMP_pressure;BME280_temperature;BME280_humidity;BME280_pressure;Samples;Min_cycle;Max_cycle;Signal;HPM_P1;HPM_P2
2023/07/03 00:01:54;;;;;;;23.05;4.25;;;;;;;15.66;100.00;100593.56;4941525;28;20055;-73
2023/07/03 00:04:23;;;;;;;8.27;2.35;;;;;;;15.57;100.00;100589.94;4946572;28;20100;-69
2023/07/03 00:06:50;;;;;;;2.60;0.90;;;;;;;15.55;100.00;100593.19;4944689;28;20051;-70
2023/07/03 00:09:16;;;;;;;10.60;2.40;;;;;;;15.58;100.00;100597.09;4944768;28;20075;-69
2023/07/03 00:11:43;;;;;;;14.63;3.33;;;;;;;15.57;100.00;100596.31;4945592;28;20062;-70
2023/07/03 00:14:10;;;;;;;19.00;3.30;;;;;;;15.35;100.00;100589.09;4949706;28;20047;-70
2023/07/03 00:16:36;;;;;;;7.90;2.63;;;;;;;15.47;100.00;100585.47;4953908;28;20052;-71
2023/07/03 00:19:03;;;;;;;7.70;1.65;;;;;;;15.35;100.00;100595.47;4942835;28;20881;-71
2023/07/03 00:21:29;;;;;;;15.70;3.05;;;;;;;15.33;100.00;100583.16;4949044;28;20125;-71
2023/07/03 00:23:56;;;;;;;16.67;4.03;;;;;;;15.31;100.00;100586.41;4943627;28;20065;-69
2023/07/03 00:26:23;;;;;;;17.27;2.95;;;;;;;15.30;100.00;100590.44;4950443;28;20055;-70
2023/07/03 00:28:49;;;;;;;11.00;2.58;;;;;;;15.18;100.00;100580.06;4947677;28;20043;-73
2023/07/03 00:31:16;;;;;;;13.55;3.30;;;;;;;15.26;100.00;100589.00;4944694;28;20082;-70
2023/07/03 00:33:42;;;;;;;21.10;4.30;;;;;;;15.12;100.00;100589.50;4947357;28;20083;-70
2023/07/03 00:36:09;;;;;;;6.82;2.10;;;;;;;15.00;100.00;100582.69;4962533;28;20453;-72
2023/07/03 00:38:36;;;;;;;16.45;3.50;;;;;;;15.02;100.00;100581.00;4943134;28;20150;-70
2023/07/03 00:41:02;;;;;;;3.38;2.20;;;;;;;14.95;100.00;100583.22;4946468;28;20067;-72
2023/07/03 00:43:33;;;;;;;10.73;3.10;;;;;;;14.93;100.00;100585.72;4949140;28;20502;-67
2023/07/03 00:45:59;;;;;;;11.52;3.38;;;;;;;14.83;100.00;100586.84;4945518;28;20039;-69
2023/07/03 00:48:26;;;;;;;7.90;2.42;;;;;;;14.90;100.00;100586.63;4944741;28;20070;-72
2023/07/03 00:50:53;;;;;;;16.63;4.28;;;;;;;14.95;100.00;100577.63;4942164;28;20199;-71
2023/07/03 00:53:19;;;;;;;10.13;2.63;;;;;;;14.65;100.00;100592.25;4947449;28;20047;-72
2023/07/03 00:55:46;;;;;;;14.68;3.33;;;;;;;14.78;100.00;100581.81;4943664;28;20121;-72
2023/07/03 00:58:12;;;;;;;6.70;2.08;;;;;;;14.80;100.00;100593.34;4941185;28;20062;-71
2023/07/03 01:00:47;;;;;;;11.23;2.88;;;;;;;14.60;100.00;100588.00;4942443;29;20121;-70
2023/07/03 01:03:42;;;;;;;4.90;2.23;;;;;;;14.67;100.00;100584.16;4945518;28;20075;-72
2023/07/03 01:06:19;;;;;;;14.10;3.60;;;;;;;14.70;100.00;100584.06;4946266;28;20142;-72
2023/07/03 01:08:54;;;;;;;8.60;2.75;;;;;;;14.66;100.00;100571.41;4939919;28;20052;-68
2023/07/03 01:11:22;;;;;;;17.25;4.05;;;;;;;14.64;100.00;100582.25;4935229;28;20588;-73
2023/07/03 01:13:53;;;;;;;14.52;3.47;;;;;;;14.55;100.00;100573.78;4946062;28;20059;-74
2023/07/03 01:16:20;;;;;;;12.80;2.75;;;;;;;14.46;100.00;100585.63;4947452;28;20221;-70
2023/07/03 01:18:50;;;;;;;9.32;3.20;;;;;;;14.49;100.00;100573.53;4945714;28;20055;-72
2023/07/03 01:21:22;;;;;;;14.57;3.33;;;;;;;14.31;100.00;100572.47;4944393;28;20102;-71
2023/07/03 01:24:04;;;;;;;13.55;3.17;;;;;;;14.46;100.00;100571.66;4940575;28;20610;-71
2023/07/03 01:26:32;;;;;;;17.17;4.00;;;;;;;14.42;100.00;100573.75;4942767;28;20051;-70
2023/07/03 01:29:01;;;;;;;19.25;4.05;;;;;;;14.42;100.00;100570.19;4937322;28;20086;-71
2023/07/03 01:31:30;;;;;;;15.23;2.03;;;;;;;14.36;100.00;100575.53;4950259;28;20090;-70
2023/07/03 01:33:59;;;;;;;15.68;3.35;;;;;;;14.37;100.00;100570.69;4945423;28;20153;-71
2023/07/03 01:36:27;;;;;;;5.22;2.08;;;;;;;14.26;100.00;100570.25;4948663;28;20146;-71
2023/07/03 01:38:55;;;;;;;7.03;2.35;;;;;;;14.20;100.00;100572.03;4949884;28;20134;-70
2023/07/03 01:41:22;;;;;;;8.80;2.08;;;;;;;14.24;100.00;100572.69;4962051;28;20066;-73
2023/07/03 01:43:49;;;;;;;26.08;5.25;;;;;;;14.26;100.00;100576.66;4949397;28;20137;-71
2023/07/03 01:46:16;;;;;;;17.17;4.13;;;;;;;14.17;100.00;100567.34;4952313;28;20133;-69
2023/07/03 01:48:42;;;;;;;21.67;4.35;;;;;;;14.17;100.00;100570.13;4957318;28;20161;-71
2023/07/03 01:51:14;;;;;;;10.77;2.05;;;;;;;14.13;100.00;100569.44;4951826;28;20134;-71
2023/07/03 01:53:55;;;;;;;9.20;2.60;;;;;;;14.07;100.00;100566.44;4955701;28;20107;-73
2023/07/03 01:56:27;;;;;;;12.82;3.13;;;;;;;14.13;100.00;100549.88;4950415;28;20055;-71
2023/07/03 01:59:05;;;;;;;3.58;1.27;;;;;;;14.12;100.00;100562.31;4947752;28;20150;-68
2023/07/03 02:01:41;;;;;;;2.50;1.42;;;;;;;14.14;100.00;100562.63;4945804;28;20078;-72
2023/07/03 02:04:35;;;;;;;15.57;3.95;;;;;;;14.15;100.00;100564.97;4961311;28;20573;-71
2023/07/03 02:07:03;;;;;;;19.73;4.57;;;;;;;14.19;100.00;100562.09;4953595;28;20131;-71
2023/07/03 02:09:30;;;;;;;17.83;3.80;;;;;;;14.15;100.00;100553.78;4953494;28;20577;-70
2023/07/03 02:11:57;;;;;;;12.85;2.67;;;;;;;13.92;100.00;100547.72;4952824;28;20086;-71
2023/07/03 02:14:24;;;;;;;9.85;2.97;;;;;;;14.04;100.00;100558.16;4947884;28;20051;-71
2023/07/03 02:16:52;;;;;;;11.80;2.60;;;;;;;13.99;100.00;100561.50;4947221;28;20925;-70
2023/07/03 02:19:28;;;;;;;16.48;3.63;;;;;;;14.00;100.00;100560.25;4946880;28;20039;-72
2023/07/03 02:21:56;;;;;;;19.50;4.70;;;;;;;14.09;100.00;100571.56;4952720;28;20086;-72
2023/07/03 02:24:22;;;;;;;22.60;4.72;;;;;;;13.97;100.00;100561.13;4952831;28;20747;-72
2023/07/03 02:26:50;;;;;;;16.48;3.22;;;;;;;13.89;100.00;100545.81;4952965;28;20462;-71
2023/07/03 02:29:16;;;;;;;20.05;4.70;;;;;;;13.99;100.00;100553.13;4949774;28;20071;-71
2023/07/03 02:31:43;;;;;;;16.00;3.53;;;;;;;13.89;100.00;100551.41;4948167;28;20110;-69
2023/07/03 02:34:09;;;;;;;11.25;2.72;;;;;;;13.79;100.00;100546.91;4947301;28;20486;-71
2023/07/03 02:36:37;;;;;;;23.67;5.25;;;;;;;13.87;100.00;100560.25;4945728;28;20339;-72
2023/07/03 02:39:05;;;;;;;19.05;4.07;;;;;;;13.81;100.00;100550.81;4951839;28;20085;-72
2023/07/03 02:41:33;;;;;;;19.95;5.10;;;;;;;13.80;100.00;100562.44;4952957;28;20083;-70
2023/07/03 02:43:59;;;;;;;18.63;4.18;;;;;;;13.80;100.00;100548.47;4951774;28;20047;-70
2023/07/03 02:46:26;;;;;;;5.80;1.98;;;;;;;13.70;100.00;100552.34;4952427;28;20166;-71
2023/07/03 02:48:52;;;;;;;17.63;3.97;;;;;;;13.78;100.00;100550.94;4952174;28;20525;-72
2023/07/03 02:51:19;;;;;;;22.15;5.25;;;;;;;13.76;100.00;100548.59;4947630;28;20047;-71
2023/07/03 02:53:46;;;;;;;19.42;3.90;;;;;;;13.65;100.00;100547.31;4947850;28;20063;-71
2023/07/03 02:56:12;;;;;;;20.10;4.70;;;;;;;13.74;100.00;100556.63;4952262;28;20090;-71
2023/07/03 02:58:39;;;;;;;24.23;4.30;;;;;;;13.62;100.00;100559.38;4952230;28;20079;-71
2023/07/03 03:01:05;;;;;;;19.98;4.60;;;;;;;13.78;100.00;100551.72;4946706;28;20078;-72
2023/07/03 03:03:33;;;;;;;21.55;5.40;;;;;;;13.67;100.00;100547.69;4941850;28;20087;-69
2023/07/03 03:05:59;;;;;;;22.85;6.43;;;;;;;13.68;100.00;100544.44;4951973;28;20053;-72
2023/07/03 03:08:26;;;;;;;28.55;5.03;;;;;;;13.64;100.00;100540.94;4952067;28;20114;-72
2023/07/03 03:10:54;;;;;;;17.98;3.55;;;;;;;13.50;100.00;100546.94;4949266;28;20142;-72
2023/07/03 03:13:20;;;;;;;14.48;3.50;;;;;;;13.55;100.00;100545.63;4941635;28;20130;-71
2023/07/03 03:15:47;;;;;;;13.27;2.20;;;;;;;13.45;100.00;100555.88;4951931;28;20101;-70
2023/07/03 03:18:14;;;;;;;26.00;5.50;;;;;;;13.56;100.00;100559.16;4949420;28;20058;-73
2023/07/03 03:20:40;;;;;;;20.58;4.75;;;;;;;13.50;100.00;100540.59;4941460;29;20050;-73
2023/07/03 03:23:09;;;;;;;18.60;4.97;;;;;;;13.53;100.00;100536.88;4950463;29;20055;-71
2023/07/03 03:25:35;;;;;;;22.60;5.47;;;;;;;13.47;100.00;100538.69;4949060;28;20134;-71
2023/07/03 03:28:02;;;;;;;17.42;3.40;;;;;;;13.45;100.00;100541.09;4945840;28;20664;-71
2023/07/03 03:30:29;;;;;;;11.88;3.70;;;;;;;13.24;100.00;100539.66;4951786;28;20098;-72
2023/07/03 03:32:56;;;;;;;6.28;1.98;;;;;;;13.31;100.00;100547.06;4948987;28;20418;-72
2023/07/03 03:35:23;;;;;;;21.00;4.90;;;;;;;13.32;100.00;100546.63;4951464;28;20067;-71
2023/07/03 03:37:49;;;;;;;19.90;4.70;;;;;;;13.32;100.00;100543.03;4949209;28;20102;-72
2023/07/03 03:40:16;;;;;;;24.20;5.78;;;;;;;13.23;100.00;100537.31;4949339;28;20082;-70
2023/07/03 03:42:42;;;;;;;22.10;4.72;;;;;;;13.33;100.00;100533.44;4948247;28;20080;-72
2023/07/03 03:45:09;;;;;;;25.17;5.55;;;;;;;13.34;100.00;100538.59;4949859;28;20059;-73
2023/07/03 03:47:35;;;;;;;11.75;2.90;;;;;;;13.17;100.00;100544.66;4950318;28;20423;-70
2023/07/03 03:50:02;;;;;;;8.80;1.95;;;;;;;13.24;100.00;100541.66;4951288;28;20147;-69
2023/07/03 03:52:29;;;;;;;21.02;4.82;;;;;;;13.27;100.00;100541.56;4949401;28;20403;-72
2023/07/03 03:54:56;;;;;;;14.38;4.50;;;;;;;13.22;100.00;100530.16;4949725;28;20047;-71
2023/07/03 03:57:22;;;;;;;6.88;2.10;;;;;;;13.12;100.00;100534.00;4948275;28;20079;-70
2023/07/03 03:59:49;;;;;;;25.48;5.38;;;;;;;13.24;100.00;100538.88;4944578;28;20175;-73
2023/07/03 04:02:15;;;;;;;5.68;1.85;;;;;;;13.15;100.00;100541.50;4948376;28;20055;-71
2023/07/03 04:04:42;;;;;;;22.20;4.65;;;;;;;13.28;100.00;100537.56;4943693;28;20081;-71
2023/07/03 04:07:08;;;;;;;17.60;3.22;;;;;;;13.08;100.00;100538.91;4946708;28;20086;-73
2023/07/03 04:09:35;;;;;;;15.63;3.38;;;;;;;13.14;100.00;100545.53;4942239;28;20134;-72
2023/07/03 04:12:02;;;;;;;6.60;1.75;;;;;;;13.16;100.00;100543.09;4946984;28;20582;-73
2023/07/03 04:14:29;;;;;;;23.10;2.75;;;;;;;13.09;100.00;100540.47;4950008;28;20066;-73
2023/07/03 04:16:57;;;;;;;9.70;1.88;;;;;;;13.11;100.00;100546.41;4951103;28;20082;-71
2023/07/03 04:19:25;;;;;;;20.52;4.63;;;;;;;12.94;100.00;100553.22;4949709;28;20621;-72
2023/07/03 04:21:52;;;;;;;21.23;4.22;;;;;;;13.00;100.00;100555.03;4947012;28;20157;-73
2023/07/03 04:24:18;;;;;;;20.70;4.75;;;;;;;13.05;100.00;100548.94;4948408;28;20043;-70
2023/07/03 04:26:45;;;;;;;20.40;4.50;;;;;;;13.01;100.00;100545.47;4949819;28;20055;-73
2023/07/03 04:29:12;;;;;;;24.92;5.22;;;;;;;13.01;100.00;100550.25;4949565;28;20070;-72
2023/07/03 04:31:39;;;;;;;27.30;4.97;;;;;;;13.08;100.00;100556.44;4944445;28;20075;-72
2023/07/03 04:34:05;;;;;;;18.60;4.75;;;;;;;12.99;100.00;100553.47;4944228;28;20114;-71
2023/07/03 04:36:32;;;;;;;15.02;3.33;;;;;;;13.13;100.00;100566.28;4950158;28;20082;-72
2023/07/03 04:39:00;;;;;;;17.92;2.08;;;;;;;12.99;100.00;100553.47;4950393;28;20106;-72
2023/07/03 04:41:28;;;;;;;17.65;3.70;;;;;;;13.04;100.00;100555.75;4950642;28;20048;-72
2023/07/03 04:43:58;;;;;;;21.45;4.82;;;;;;;13.18;100.00;100562.97;4950307;28;20086;-73
2023/07/03 04:46:26;;;;;;;9.63;3.00;;;;;;;13.13;100.00;100566.28;4948984;28;20093;-72
2023/07/03 04:48:59;;;;;;;17.38;3.53;;;;;;;13.10;100.00;100562.34;4947419;28;20055;-72
2023/07/03 04:51:30;;;;;;;15.63;2.47;;;;;;;13.11;100.00;100560.34;4949906;28;20138;-71
2023/07/03 04:53:59;;;;;;;21.50;4.88;;;;;;;13.32;100.00;100563.38;4946408;28;20066;-72
2023/07/03 04:56:27;;;;;;;28.00;7.70;;;;;;;13.36;100.00;100558.47;4948834;28;20051;-72
2023/07/03 04:58:53;;;;;;;25.55;6.22;;;;;;;13.43;100.00;100552.72;4949480;28;20059;-72
2023/07/03 05:01:20;;;;;;;13.27;3.92;;;;;;;13.40;100.00;100563.97;4941620;28;20126;-72
2023/07/03 05:03:47;;;;;;;15.18;3.30;;;;;;;13.41;100.00;100554.38;4948612;28;20181;-70
2023/07/03 05:06:13;;;;;;;24.90;5.22;;;;;;;13.48;100.00;100565.38;4949061;28;20691;-74
2023/07/03 05:08:40;;;;;;;36.20;6.35;;;;;;;13.64;100.00;100563.28;4948745;28;20047;-72
2023/07/03 05:11:06;;;;;;;15.15;3.97;;;;;;;13.47;100.00;100570.16;4947355;28;20493;-71
2023/07/03 05:13:33;;;;;;;17.85;3.53;;;;;;;13.57;100.00;100566.28;4949559;28;20106;-71
2023/07/03 05:15:59;;;;;;;12.57;3.47;;;;;;;13.54;100.00;100564.38;4941479;28;20074;-71
2023/07/03 05:18:26;;;;;;;25.45;5.50;;;;;;;13.84;100.00;100565.94;4946038;28;20958;-71
2023/07/03 05:20:53;;;;;;;24.13;5.10;;;;;;;13.85;100.00;100570.28;4949372;28;20139;-73
2023/07/03 05:23:19;;;;;;;17.40;2.40;;;;;;;13.78;100.00;100573.28;4949671;28;20102;-74
2023/07/03 05:25:46;;;;;;;22.10;6.18;;;;;;;13.96;100.00;100571.56;4950130;28;20090;-72
2023/07/03 05:28:14;;;;;;;9.18;1.95;;;;;;;14.07;100.00;100586.00;4949449;28;20438;-72
2023/07/03 05:30:40;;;;;;;27.00;5.45;;;;;;;14.16;100.00;100580.53;4942386;28;20527;-71
2023/07/03 05:33:07;;;;;;;31.70;6.82;;;;;;;14.29;100.00;100569.38;4942799;28;20078;-72
2023/07/03 05:35:34;;;;;;;18.60;4.30;;;;;;;14.37;100.00;100587.47;4947988;28;20129;-73
2023/07/03 05:38:16;;;;;;;27.77;5.53;;;;;;;14.43;100.00;100580.13;4949625;28;20062;-70
2023/07/03 05:40:42;;;;;;;25.73;5.50;;;;;;;14.53;100.00;100587.41;4945145;28;20395;-73
2023/07/03 05:43:10;;;;;;;8.40;2.80;;;;;;;14.42;100.00;100589.78;4945951;28;20101;-73
2023/07/03 05:45:37;;;;;;;20.75;3.65;;;;;;;14.46;100.00;100601.63;4940325;28;20138;-74
2023/07/03 05:48:03;;;;;;;7.72;2.42;;;;;;;14.46;100.00;100593.25;4942723;28;20071;-72
2023/07/03 05:50:30;;;;;;;10.00;3.72;;;;;;;14.42;100.00;100593.34;4949965;28;20139;-71
2023/07/03 05:52:56;;;;;;;16.45;3.67;;;;;;;14.45;100.00;100600.84;4949713;28;20079;-71
2023/07/03 05:55:23;;;;;;;29.60;6.47;;;;;;;14.63;100.00;100598.28;4947435;28;20160;-72
2023/07/03 05:57:50;;;;;;;19.27;4.50;;;;;;;14.61;100.00;100595.13;4943382;28;20553;-72
2023/07/03 06:00:17;;;;;;;24.73;5.50;;;;;;;14.82;100.00;100596.47;4945750;28;20422;-74
2023/07/03 06:02:46;;;;;;;9.20;2.90;;;;;;;14.68;100.00;100599.72;4947902;28;20086;-73
2023/07/03 06:05:14;;;;;;;14.90;3.10;;;;;;;14.52;100.00;100600.59;4939900;28;20056;-73
2023/07/03 06:07:40;;;;;;;11.43;3.28;;;;;;;14.56;100.00;100615.28;4949149;28;20081;-72
2023/07/03 06:10:07;;;;;;;20.33;5.40;;;;;;;14.45;100.00;100605.66;4937145;28;20051;-72
2023/07/03 06:12:34;;;;;;;11.73;2.65;;;;;;;14.58;100.00;100606.44;4948940;28;20778;-73
2023/07/03 06:15:01;;;;;;;19.27;4.35;;;;;;;14.60;100.00;100617.97;4948391;28;20474;-73
2023/07/03 06:17:29;;;;;;;20.40;4.38;;;;;;;14.62;100.00;100604.31;4947332;28;20083;-72
2023/07/03 06:19:56;;;;;;;24.73;4.60;;;;;;;14.77;100.00;100620.22;4949463;28;20061;-72
2023/07/03 06:22:23;;;;;;;10.75;2.92;;;;;;;14.80;100.00;100630.50;4940903;28;20059;-73
2023/07/03 06:24:49;;;;;;;23.45;4.78;;;;;;;14.90;100.00;100625.78;4950560;28;20130;-72
2023/07/03 06:27:16;;;;;;;19.48;3.00;;;;;;;14.75;100.00;100628.25;4946434;28;20078;-69
2023/07/03 06:29:43;;;;;;;26.15;5.97;;;;;;;14.90;100.00;100629.41;4949283;28;20059;-74
2023/07/03 06:32:10;;;;;;;18.38;3.45;;;;;;;15.09;100.00;100618.38;4947915;28;20061;-73
2023/07/03 06:34:37;;;;;;;17.17;4.15;;;;;;;14.94;100.00;100623.66;4944928;28;20642;-70
2023/07/03 06:37:05;;;;;;;13.98;3.83;;;;;;;14.84;100.00;100627.59;4952377;28;20075;-70
2023/07/03 06:39:38;;;;;;;12.88;3.42;;;;;;;14.76;100.00;100629.06;4951814;28;20055;-69
2023/07/03 06:42:05;;;;;;;8.55;1.80;;;;;;;14.93;100.00;100625.66;4945725;28;20134;-68
2023/07/03 06:44:32;;;;;;;19.98;5.15;;;;;;;14.98;100.00;100627.91;4952001;28;20111;-67
2023/07/03 06:46:58;;;;;;;17.75;4.15;;;;;;;15.11;100.00;100621.50;4952593;28;20059;-67
2023/07/03 06:49:25;;;;;;;23.88;3.95;;;;;;;15.17;100.00;100617.69;4948526;28;20047;-69
2023/07/03 06:51:52;;;;;;;15.05;3.80;;;;;;;15.21;100.00;100620.38;4942175;28;20098;-69
2023/07/03 06:54:18;;;;;;;13.75;2.67;;;;;;;15.28;100.00;100631.31;4948278;28;20118;-69
2023/07/03 06:56:45;;;;;;;23.35;5.05;;;;;;;15.39;100.00;100629.75;4947570;28;20092;-69
2023/07/03 06:59:12;;;;;;;24.38;4.65;;;;;;;15.36;100.00;100630.66;4949157;29;20047;-70
2023/07/03 07:01:40;;;;;;;20.00;5.03;;;;;;;15.34;100.00;100633.13;4952305;28;20534;-70
2023/07/03 07:04:06;;;;;;;11.73;2.70;;;;;;;15.08;100.00;100634.41;4941962;28;20051;-69
2023/07/03 07:06:33;;;;;;;8.60;2.13;;;;;;;15.19;100.00;100646.00;4947665;28;20055;-67
2023/07/03 07:09:00;;;;;;;19.38;4.60;;;;;;;15.27;100.00;100636.16;4948613;28;20074;-69
2023/07/03 07:11:30;;;;;;;18.48;4.35;;;;;;;15.37;100.00;100637.84;4948857;28;20797;-70
2023/07/03 07:13:59;;;;;;;17.65;4.30;;;;;;;15.23;100.00;100635.50;4950794;28;20401;-69
2023/07/03 07:16:31;;;;;;;11.75;4.03;;;;;;;15.46;100.00;100642.75;4950606;28;20051;-69
2023/07/03 07:19:00;;;;;;;22.40;4.70;;;;;;;15.41;100.00;100643.31;4950021;28;20063;-68
2023/07/03 07:21:29;;;;;;;24.00;4.63;;;;;;;15.61;100.00;100641.00;4945028;28;20099;-66
2023/07/03 07:23:58;;;;;;;10.73;2.70;;;;;;;15.68;100.00;100641.56;4951521;28;20054;-68
2023/07/03 07:26:33;;;;;;;13.10;4.40;;;;;;;15.55;100.00;100642.81;4948635;28;20079;-70
2023/07/03 07:29:01;;;;;;;9.57;2.45;;;;;;;15.38;100.00;100644.22;4942487;28;20058;-70
2023/07/03 07:31:28;;;;;;;15.18;3.42;;;;;;;15.51;100.00;100639.38;4951221;28;20051;-69
2023/07/03 07:33:55;;;;;;;14.20;3.13;;;;;;;15.63;100.00;100642.13;4935918;28;20060;-69
2023/07/03 07:36:24;;;;;;;9.57;2.63;;;;;;;15.55;100.00;100645.63;4946283;28;20055;-70
2023/07/03 07:38:52;;;;;;;20.42;5.00;;;;;;;15.60;100.00;100633.84;4942958;28;20058;-68
2023/07/03 07:41:24;;;;;;;17.38;3.30;;;;;;;15.50;100.00;100638.59;4944783;28;20107;-70
2023/07/03 07:43:53;;;;;;;16.80;4.00;;;;;;;15.33;100.00;100636.38;4959553;28;20063;-69
2023/07/03 07:46:20;;;;;;;8.15;1.98;;;;;;;15.42;100.00;100642.88;4939175;28;20146;-68
2023/07/03 07:48:47;;;;;;;24.08;5.25;;;;;;;15.33;100.00;100644.78;4947028;28;20063;-69
2023/07/03 07:51:14;;;;;;;14.40;2.95;;;;;;;15.56;100.00;100639.56;4950548;28;20154;-68
2023/07/03 07:53:41;;;;;;;18.33;4.40;;;;;;;15.90;100.00;100631.13;4945320;28;20051;-67
2023/07/03 07:56:08;;;;;;;21.13;5.50;;;;;;;16.14;100.00;100642.69;4948721;28;20216;-67
2023/07/03 07:58:35;;;;;;;15.30;4.03;;;;;;;16.24;100.00;100642.28;4945490;28;20131;-65
2023/07/03 08:01:03;;;;;;;13.35;2.60;;;;;;;16.42;100.00;100642.44;4948826;28;20083;-68
2023/07/03 08:03:29;;;;;;;12.43;3.38;;;;;;;16.18;100.00;100641.31;4950960;28;20098;-68
2023/07/03 08:05:58;;;;;;;17.70;4.45;;;;;;;16.11;100.00;100652.00;4948427;28;20086;-67
2023/07/03 08:08:26;;;;;;;10.43;3.13;;;;;;;16.15;100.00;100647.84;4950537;28;20648;-68
2023/07/03 08:10:53;;;;;;;8.85;2.60;;;;;;;16.19;100.00;100650.50;4948386;28;20050;-68
2023/07/03 08:13:20;;;;;;;17.02;4.57;;;;;;;16.28;100.00;100647.78;4946827;28;20155;-71
2023/07/03 08:15:47;;;;;;;25.27;4.45;;;;;;;16.36;100.00;100651.88;4943105;28;20475;-67
2023/07/03 08:18:15;;;;;;;26.75;6.03;;;;;;;16.74;100.00;100649.59;4949725;28;20489;-68
2023/07/03 08:20:43;;;;;;;24.85;6.22;;;;;;;16.89;100.00;100645.78;4949180;28;20051;-70
2023/07/03 08:23:10;;;;;;;19.15;5.13;;;;;;;17.03;100.00;100639.59;4942205;28;20079;-68
2023/07/03 08:25:37;;;;;;;22.90;5.32;;;;;;;17.15;100.00;100638.69;4945095;28;20106;-69
2023/07/03 08:28:04;;;;;;;8.88;2.38;;;;;;;16.91;100.00;100648.88;4938980;28;20140;-69
2023/07/03 08:30:31;;;;;;;13.82;3.75;;;;;;;16.77;100.00;100648.66;4946909;28;20058;-71
2023/07/03 08:32:57;;;;;;;7.90;2.95;;;;;;;16.77;100.00;100643.06;4940348;28;20055;-68
2023/07/03 08:35:24;;;;;;;20.48;4.03;;;;;;;16.78;100.00;100644.63;4946131;28;20122;-72
2023/07/03 08:37:54;;;;;;;14.13;4.03;;;;;;;16.64;100.00;100645.97;4947862;28;20134;-67
2023/07/03 08:40:22;;;;;;;15.75;4.90;;;;;;;16.84;100.00;100654.00;4948265;28;20098;-69
2023/07/03 08:42:54;;;;;;;23.35;4.68;;;;;;;16.72;100.00;100658.50;4949858;28;20075;-71
2023/07/03 08:45:28;;;;;;;18.85;5.35;;;;;;;16.66;100.00;100663.13;4948574;28;20055;-70
2023/07/03 08:47:56;;;;;;;17.40;4.38;;;;;;;16.63;100.00;100669.66;4941075;28;20055;-69
2023/07/03 08:50:24;;;;;;;20.77;4.28;;;;;;;16.56;100.00;100672.75;4946954;28;20055;-69
2023/07/03 08:53:04;;;;;;;23.70;4.85;;;;;;;16.54;100.00;100682.88;4948342;28;20062;-69
2023/07/03 08:55:49;;;;;;;26.35;7.07;;;;;;;16.55;100.00;100684.44;4948738;28;20761;-69
2023/07/03 08:58:16;;;;;;;8.63;2.60;;;;;;;16.48;100.00;100687.50;4946483;28;20071;-69
2023/07/03 09:00:53;;;;;;;11.32;2.33;;;;;;;16.39;100.00;100679.03;4949536;28;20051;-69
2023/07/03 09:03:53;;;;;;;8.95;2.42;;;;;;;16.37;100.00;100690.72;4945093;28;20732;-70
2023/07/03 09:06:39;;;;;;;15.45;3.78;;;;;;;16.51;100.00;100687.38;4939164;28;20055;-69
2023/07/03 09:09:23;;;;;;;16.92;4.25;;;;;;;16.62;100.00;100689.78;4943637;28;20047;-68
2023/07/03 09:12:13;;;;;;;26.38;4.00;;;;;;;16.66;100.00;100687.59;4942694;28;20066;-69
2023/07/03 09:14:54;;;;;;;11.52;2.58;;;;;;;16.57;100.00;100702.38;4940182;28;20113;-70
2023/07/03 09:17:24;;;;;;;22.85;5.00;;;;;;;16.82;100.00;100685.38;4944606;28;20078;-67
2023/07/03 09:19:54;;;;;;;26.50;5.35;;;;;;;16.78;100.00;100683.94;4949556;28;20163;-67
2023/07/03 09:22:46;;;;;;;17.38;3.90;;;;;;;16.84;100.00;100679.25;4940331;28;20135;-69
2023/07/03 09:25:21;;;;;;;16.63;3.53;;;;;;;16.97;100.00;100683.56;4931568;28;20043;-70
2023/07/03 09:27:53;;;;;;;7.80;2.13;;;;;;;16.93;100.00;100682.13;4943210;28;20114;-71
2023/07/03 09:30:20;;;;;;;18.98;5.95;;;;;;;17.03;100.00;100675.31;4941718;28;20060;-68
2023/07/03 09:32:46;;;;;;;18.02;4.07;;;;;;;17.00;100.00;100679.03;4940425;28;20121;-70
2023/07/03 09:35:19;;;;;;;17.15;3.25;;;;;;;16.56;100.00;100675.56;4945552;28;20055;-68
2023/07/03 09:37:52;;;;;;;11.45;3.33;;;;;;;16.88;100.00;100677.88;4932723;28;20090;-69
2023/07/03 09:40:27;;;;;;;19.25;3.78;;;;;;;17.01;100.00;100672.94;4945171;28;20498;-68
2023/07/03 09:42:53;;;;;;;6.65;2.42;;;;;;;17.07;100.00;100679.53;4940866;28;20540;-69
2023/07/03 09:45:23;;;;;;;9.35;2.33;;;;;;;17.10;100.00;100678.59;4952054;28;20079;-69
2023/07/03 09:47:57;;;;;;;16.90;3.97;;;;;;;17.56;100.00;100678.75;4945079;28;20540;-69
2023/07/03 09:50:37;;;;;;;6.13;1.98;;;;;;;17.59;100.00;100670.16;4931808;28;20110;-71
2023/07/03 09:53:04;;;;;;;22.00;4.38;;;;;;;17.99;100.00;100667.25;4931315;28;20143;-72
2023/07/03 09:55:36;;;;;;;17.30;4.53;;;;;;;18.22;100.00;100672.19;4941524;28;20469;-69
2023/07/03 09:58:14;;;;;;;13.70;3.22;;;;;;;18.05;100.00;100666.13;4948019;28;20107;-69
2023/07/03 10:00:54;;;;;;;16.05;3.08;;;;;;;18.13;100.00;100697.56;4939576;28;20060;-70
2023/07/03 10:03:26;;;;;;;5.60;1.52;;;;;;;17.71;100.00;100688.91;4924186;28;20062;-67
2023/07/03 10:06:14;;;;;;;9.43;3.20;;;;;;;17.31;100.00;100693.81;4926651;28;20134;-73
2023/07/03 10:08:49;;;;;;;8.77;3.00;;;;;;;17.18;100.00;100699.56;4925961;28;20824;-71
2023/07/03 10:12:13;;;;;;;15.70;3.47;;;;;;;17.02;100.00;100696.22;4928972;28;20051;-73
2023/07/03 10:15:08;;;;;;;2.70;1.42;;;;;;;17.17;100.00;100702.84;4918955;28;20825;-73
2023/07/03 10:17:42;;;;;;;8.73;2.42;;;;;;;17.46;100.00;100699.66;4928718;28;20047;-70
2023/07/03 10:20:14;;;;;;;16.40;3.83;;;;;;;17.74;100.00;100699.22;4940323;28;20050;-71
2023/07/03 10:22:43;;;;;;;17.50;3.67;;;;;;;18.05;100.00;100691.44;4941556;28;20864;-69
2023/07/03 10:25:18;;;;;;;17.92;3.63;;;;;;;18.28;100.00;100698.47;4947323;28;20061;-70
2023/07/03 10:27:46;;;;;;;;;;;;;;;18.10;100.00;100706.94;4938603;28;20126;-68
2023/07/03 10:30:15;;;;;;;8.13;1.63;;;;;;;18.29;100.00;100691.59;4948454;28;19961;-69
2023/07/03 10:32:46;;;;;;;14.00;3.42;;;;;;;18.57;100.00;100679.03;4946023;28;20114;-70
2023/07/03 10:35:22;;;;;;;7.80;2.42;;;;;;;18.67;100.00;100692.59;4948621;28;20055;-69
2023/07/03 10:38:11;;;;;;;15.00;3.05;;;;;;;18.46;100.00;100690.03;4942965;28;20063;-70
2023/07/03 10:40:49;;;;;;;11.45;1.45;;;;;;;18.66;100.00;100690.25;4946560;28;20055;-69
2023/07/03 10:43:18;;;;;;;13.52;2.97;;;;;;;18.75;100.00;100693.88;4951126;28;20592;-70
2023/07/03 10:45:47;;;;;;;8.77;2.00;;;;;;;18.34;100.00;100702.22;4942668;28;20051;-70
2023/07/03 10:48:17;;;;;;;10.60;2.28;;;;;;;18.76;100.00;100694.63;4941390;28;20138;-70
2023/07/03 10:50:50;;;;;;;21.02;4.00;;;;;;;18.99;100.00;100685.47;4948500;28;20051;-71
2023/07/03 10:53:23;;;;;;;4.22;1.52;;;;;;;19.04;100.00;100687.66;4950706;28;20043;-70
2023/07/03 10:56:02;;;;;;;12.40;3.70;;;;;;;18.47;100.00;100695.19;4950512;28;20562;-70
2023/07/03 10:58:50;;;;;;;7.53;2.00;;;;;;;18.61;100.00;100688.09;4947410;28;20067;-71
2023/07/03 11:01:39;;;;;;;5.18;1.60;;;;;;;18.69;100.00;100706.19;4946413;28;20529;-70
2023/07/03 11:04:12;;;;;;;4.13;1.15;;;;;;;18.72;100.00;100705.25;4945422;28;20138;-71
2023/07/03 11:07:34;;;;;;;14.05;2.70;;;;;;;18.72;100.00;100696.81;4942899;28;20506;-71
2023/07/03 11:10:26;;;;;;;12.90;3.33;;;;;;;19.08;100.00;100688.28;4946588;28;20059;-72
2023/07/03 11:13:14;;;;;;;11.80;3.75;;;;;;;19.39;100.00;100697.97;4948066;28;20051;-72
2023/07/03 11:15:46;;;;;;;10.80;2.72;;;;;;;19.10;100.00;100688.56;4947778;28;20057;-68
2023/07/03 11:18:35;;;;;;;7.93;2.17;;;;;;;18.97;100.00;100693.66;4945945;28;20086;-72
2023/07/03 11:21:35;;;;;;;9.02;2.33;;;;;;;19.01;100.00;100677.34;4945956;28;20580;-71
2023/07/03 11:24:16;;;;;;;5.40;1.60;;;;;;;18.94;100.00;100683.31;4942779;28;20115;-72
2023/07/03 11:26:56;;;;;;;10.20;2.60;;;;;;;19.02;100.00;100673.25;4947913;28;20119;-71